Time;durP1;ratioP1;P1;durP2;ratioP2;P2;SDS_P1;SDS_P2;PMS_P1;PMS_P2;Temp;Humidity;BMP_temperature;BMP_pressure;BME280_temperature;BME280_humidity;BME280_pressure;Samples;Min_cycle;Max_cycle;Signal;HPM_P1;HPM_P2
2022/03/30 00:01:58;;;;;;;28.10;13.32;;;11.20;99.90;;;;;;4145681;28;20108;-63
2022/03/30 00:03:59;;;;;;;22.58;12.20;;;11.30;99.90;;;;;;4147355;28;20064;-64
2022/03/30 00:06:00;;;;;;;21.60;12.27;;;11.20;99.90;;;;;;4146428;28;20057;-63
2022/03/30 00:08:00;;;;;;;29.88;12.85;;;11.30;99.90;;;;;;4146834;28;20505;-63
2022/03/30 00:10:03;;;;;;;20.70;12.10;;;11.30;99.90;;;;;;4150961;28;20029;-63
2022/03/30 00:12:04;;;;;;;23.92;12.55;;;11.30;99.90;;;;;;4145670;28;20041;-63
2022/03/30 00:14:05;;;;;;;20.35;12.05;;;11.30;99.90;;;;;;4145645;28;20482;-63
2022/03/30 00:16:07;;;;;;;23.40;13.20;;;11.30;99.90;;;;;;4144577;28;20022;-63
2022/03/30 00:18:08;;;;;;;25.10;12.52;;;11.30;99.90;;;;;;4130582;28;20540;-63
2022/03/30 00:20:10;;;;;;;23.55;12.68;;;11.30;99.90;;;;;;4145894;28;20065;-64
2022/03/30 00:22:10;;;;;;;25.90;12.90;;;11.20;99.90;;;;;;4143673;28;20113;-63
2022/03/30 00:24:11;;;;;;;23.92;12.60;;;11.20;99.90;;;;;;4146123;28;20054;-63
2022/03/30 00:26:12;;;;;;;26.98;13.68;;;11.20;99.90;;;;;;4145378;28;20042;-63
2022/03/30 00:28:13;;;;;;;25.58;12.38;;;11.20;99.90;;;;;;4145582;28;20026;-63
2022/03/30 00:30:16;;;;;;;28.60;13.68;;;11.20;99.90;;;;;;4144610;28;20038;-64
2022/03/30 00:32:16;;;;;;;24.77;12.48;;;11.20;99.90;;;;;;4148517;28;20092;-63
2022/03/30 00:34:17;;;;;;;27.33;13.00;;;11.20;99.90;;;;;;4147048;28;20034;-63
2022/03/30 00:36:19;;;;;;;23.55;12.45;;;11.20;99.90;;;;;;4145632;28;20026;-63
2022/03/30 00:38:20;;;;;;;22.63;11.60;;;11.10;99.90;;;;;;4146581;28;20421;-63
2022/03/30 00:40:21;;;;;;;24.02;12.60;;;11.10;99.90;;;;;;4140363;28;20116;-63
2022/03/30 00:42:23;;;;;;;25.35;12.90;;;11.10;99.90;;;;;;4147474;28;20100;-63
2022/03/30 00:44:24;;;;;;;26.90;12.57;;;11.10;99.90;;;;;;4142676;28;20058;-64
2022/03/30 00:46:24;;;;;;;29.63;13.60;;;11.00;99.90;;;;;;4145133;28;20076;-63
2022/03/30 00:48:25;;;;;;;25.17;12.48;;;11.00;99.90;;;;;;4144875;28;20552;-64
2022/03/30 00:50:25;;;;;;;27.92;13.18;;;11.00;99.90;;;;;;4144231;28;20057;-63
2022/03/30 00:52:26;;;;;;;21.98;12.48;;;11.00;99.90;;;;;;4146609;28;20486;-64
2022/03/30 00:54:27;;;;;;;27.25;12.98;;;11.00;99.90;;;;;;4148103;28;20088;-64
2022/03/30 00:56:30;;;;;;;21.27;12.25;;;10.90;99.90;;;;;;4144882;28;20130;-64
2022/03/30 00:58:31;;;;;;;24.95;12.50;;;10.90;99.90;;;;;;4145845;28;20478;-63
2022/03/30 01:00:32;;;;;;;21.27;11.90;;;10.80;99.90;;;;;;4145339;28;20034;-64
2022/03/30 01:02:32;;;;;;;28.08;12.68;;;10.90;99.90;;;;;;4147133;28;20034;-63
2022/03/30 01:04:33;;;;;;;24.77;13.02;;;10.80;99.90;;;;;;4144879;28;20030;-63
2022/03/30 01:06:34;;;;;;;25.13;13.57;;;10.80;99.90;;;;;;4144536;28;20035;-63
2022/03/30 01:08:35;;;;;;;23.08;12.80;;;10.70;99.90;;;;;;4147405;28;20125;-63
2022/03/30 01:10:35;;;;;;;24.35;12.88;;;10.70;99.90;;;;;;4144244;28;20038;-63
2022/03/30 01:12:39;;;;;;;20.95;11.90;;;10.70;99.90;;;;;;4144790;28;20049;-63
2022/03/30 01:14:40;;;;;;;22.02;12.50;;;10.60;99.90;;;;;;4144420;28;20478;-63
2022/03/30 01:16:40;;;;;;;23.48;12.82;;;10.60;99.90;;;;;;4144772;28;20523;-63
2022/03/30 01:18:41;;;;;;;20.63;11.20;;;10.60;99.90;;;;;;4144826;28;20030;-63
2022/03/30 01:20:51;;;;;;;27.27;13.75;;;10.50;99.90;;;;;;4144728;28;20046;-63
2022/03/30 01:22:52;;;;;;;26.17;12.95;;;10.50;99.90;;;;;;4147699;28;20080;-65
2022/03/30 01:24:53;;;;;;;29.80;13.02;;;10.50;99.90;;;;;;4145514;28;20090;-64
2022/03/30 01:26:53;;;;;;;26.15;13.30;;;10.40;99.90;;;;;;4145038;28;20022;-64
2022/03/30 01:28:55;;;;;;;22.13;13.13;;;10.40;99.90;;;;;;4144397;28;20092;-64
2022/03/30 01:33:14;;;;;;;29.23;13.18;;;10.30;99.90;;;;;;4144656;28;20096;-64
2022/03/30 01:35:15;;;;;;;26.52;12.70;;;10.20;99.90;;;;;;4144676;28;20092;-64
2022/03/30 01:37:16;;;;;;;25.33;12.90;;;10.20;99.90;;;;;;4144830;28;20030;-64
2022/03/30 01:39:16;;;;;;;26.30;12.63;;;10.20;99.90;;;;;;4144837;28;20491;-64
2022/03/30 01:41:17;;;;;;;24.75;13.00;;;10.20;99.90;;;;;;4146295;28;20042;-63
2022/03/30 01:43:17;;;;;;;24.65;12.70;;;10.20;99.90;;;;;;4146840;28;20495;-63
2022/03/30 01:45:18;;;;;;;22.60;12.68;;;10.20;99.90;;;;;;4144423;28;20500;-63
2022/03/30 01:47:19;;;;;;;24.45;13.32;;;10.20;99.90;;;;;;4144793;28;20137;-63
2022/03/30 01:49:24;;;;;;;23.10;12.82;;;10.10;99.90;;;;;;4144884;28;20165;-63
2022/03/30 01:51:24;;;;;;;25.55;14.15;;;10.20;99.90;;;;;;4143780;28;20030;-64
2022/03/30 01:53:25;;;;;;;24.02;12.70;;;10.10;99.90;;;;;;4144523;28;20041;-63
2022/03/30 01:55:26;;;;;;;26.13;13.77;;;10.10;99.90;;;;;;4145267;28;20053;-64
2022/03/30 01:57:27;;;;;;;25.88;12.80;;;10.10;99.90;;;;;;4144189;28;20046;-66
2022/03/30 01:59:28;;;;;;;24.23;12.95;;;10.10;99.90;;;;;;4145552;28;20045;-64
2022/03/30 02:01:28;;;;;;;26.90;13.88;;;10.10;99.90;;;;;;4144115;28;20429;-64
2022/03/30 02:03:29;;;;;;;25.02;12.90;;;10.10;99.90;;;;;;4144670;28;20073;-63
2022/03/30 02:05:31;;;;;;;25.17;13.43;;;10.10;99.90;;;;;;4143880;28;21242;-64
2022/03/30 02:07:31;;;;;;;25.65;13.65;;;10.10;99.90;;;;;;4144241;28;20116;-63
2022/03/30 02:09:32;;;;;;;29.42;13.70;;;10.10;99.90;;;;;;4143913;28;20034;-63
2022/03/30 02:11:33;;;;;;;27.52;13.60;;;10.00;99.90;;;;;;4146005;28;20026;-63
2022/03/30 02:13:34;;;;;;;28.17;13.50;;;10.00;99.90;;;;;;4149383;28;20037;-63
2022/03/30 02:15:34;;;;;;;23.23;13.40;;;10.00;99.90;;;;;;4144510;28;20046;-63
2022/03/30 02:17:35;;;;;;;27.70;13.65;;;10.00;99.90;;;;;;4148235;28;20033;-63
2022/03/30 02:19:36;;;;;;;24.27;13.48;;;10.00;99.90;;;;;;4144722;28;20038;-63
2022/03/30 02:21:37;;;;;;;26.63;13.68;;;9.90;99.90;;;;;;4142993;28;20049;-63
2022/03/30 02:23:39;;;;;;;28.42;13.43;;;9.80;99.90;;;;;;4144813;28;20622;-63
2022/03/30 02:25:39;;;;;;;24.02;12.55;;;9.90;99.90;;;;;;4143909;28;20494;-63
2022/03/30 02:27:40;;;;;;;27.88;13.57;;;9.80;99.90;;;;;;4143763;28;20041;-63
2022/03/30 02:29:41;;;;;;;26.33;14.07;;;9.60;99.90;;;;;;4144127;28;20030;-63
2022/03/30 02:31:41;;;;;;;25.80;13.77;;;9.60;99.90;;;;;;4144970;28;20127;-63
2022/03/30 02:33:42;;;;;;;32.45;15.68;;;9.50;99.90;;;;;;4145705;28;20034;-63
2022/03/30 02:35:43;;;;;;;25.60;14.50;;;9.50;99.90;;;;;;4143557;28;20026;-63
2022/03/30 02:37:43;;;;;;;27.38;13.80;;;9.50;99.90;;;;;;4143924;28;20034;-63
2022/03/30 02:39:44;;;;;;;27.35;14.07;;;9.50;99.90;;;;;;4144928;28;20058;-63
2022/03/30 02:41:46;;;;;;;27.10;13.85;;;9.40;99.90;;;;;;4146284;28;20113;-63
2022/03/30 02:43:47;;;;;;;29.95;15.00;;;9.40;99.90;;;;;;4144976;28;20033;-63
2022/03/30 02:45:47;;;;;;;31.15;13.73;;;9.40;99.90;;;;;;4143447;28;20069;-63
2022/03/30 02:50:07;;;;;;;29.48;13.23;;;9.40;99.90;;;;;;4141641;28;20057;-65
2022/03/30 02:52:08;;;;;;;26.42;13.43;;;9.30;99.90;;;;;;4144322;28;20088;-63
2022/03/30 02:54:09;;;;;;;32.95;14.98;;;9.20;99.90;;;;;;4146774;28;20488;-63
2022/03/30 02:56:09;;;;;;;26.38;13.98;;;9.20;99.90;;;;;;4142198;28;20046;-63
2022/03/30 02:58:11;;;;;;;29.88;14.38;;;9.20;99.90;;;;;;4143316;28;20030;-63
2022/03/30 03:00:12;;;;;;;24.88;14.25;;;9.20;99.90;;;;;;4145347;28;20030;-63
2022/03/30 03:02:12;;;;;;;31.63;14.73;;;9.20;99.90;;;;;;4143576;28;20107;-63
2022/03/30 03:04:13;;;;;;;25.65;13.52;;;9.10;99.90;;;;;;4145763;28;20029;-63
2022/03/30 03:06:14;;;;;;;27.52;13.80;;;9.10;99.90;;;;;;4142670;28;20465;-64
2022/03/30 03:08:14;;;;;;;31.50;14.25;;;9.10;99.90;;;;;;4143925;28;20030;-63
2022/03/30 03:10:15;;;;;;;25.00;13.90;;;9.00;99.90;;;;;;4142553;28;20394;-63
2022/03/30 03:12:15;;;;;;;31.27;14.63;;;9.00;99.90;;;;;;4147871;28;20359;-63
2022/03/30 03:14:16;;;;;;;31.50;14.23;;;9.00;99.90;;;;;;4142666;28;20033;-63
2022/03/30 03:16:18;;;;;;;29.63;13.52;;;9.00;99.90;;;;;;4142395;28;20038;-63
2022/03/30 03:18:19;;;;;;;32.95;13.82;;;9.00;99.90;;;;;;4143035;28;20038;-63
2022/03/30 03:20:19;;;;;;;31.50;14.55;;;9.00;99.90;;;;;;4144338;28;20041;-63
2022/03/30 03:22:20;;;;;;;28.50;13.57;;;8.90;99.90;;;;;;4146018;28;20049;-63
2022/03/30 03:24:21;;;;;;;31.05;13.90;;;8.90;99.90;;;;;;4142867;28;20460;-63
2022/03/30 03:26:22;;;;;;;30.48;14.10;;;8.90;99.90;;;;;;4143324;28;20046;-63
2022/03/30 03:28:23;;;;;;;29.65;14.50;;;8.90;99.90;;;;;;4144357;28;20485;-64
2022/03/30 03:30:24;;;;;;;30.45;14.15;;;8.80;99.90;;;;;;4142116;28;20038;-63
2022/03/30 03:32:24;;;;;;;29.02;14.10;;;8.50;99.90;;;;;;4145469;28;20481;-64
2022/03/30 03:34:25;;;;;;;28.38;14.57;;;8.40;99.90;;;;;;4142444;28;20046;-63
2022/03/30 03:36:25;;;;;;;26.80;13.75;;;8.40;99.90;;;;;;4145223;28;20427;-64
2022/03/30 03:38:26;;;;;;;27.88;13.85;;;8.50;99.90;;;;;;4141671;28;20026;-63
2022/03/30 03:40:30;;;;;;;26.55;13.73;;;8.40;99.90;;;;;;4144259;28;20038;-63
2022/03/30 03:42:31;;;;;;;26.85;14.02;;;8.50;99.90;;;;;;4141413;28;20034;-64
2022/03/30 03:44:31;;;;;;;28.00;13.45;;;8.40;99.90;;;;;;4141885;28;20113;-63
2022/03/30 03:46:32;;;;;;;28.88;14.75;;;8.50;99.90;;;;;;4145035;28;20026;-64
2022/03/30 03:48:32;;;;;;;28.02;14.18;;;8.50;99.90;;;;;;4142669;28;20038;-63
2022/03/30 03:50:33;;;;;;;26.15;13.00;;;8.40;99.90;;;;;;4141947;28;20045;-63
2022/03/30 03:52:34;;;;;;;28.40;13.68;;;8.40;99.90;;;;;;4144619;28;20041;-63
2022/03/30 03:54:34;;;;;;;29.27;15.23;;;8.40;99.90;;;;;;4141938;28;20465;-63
2022/03/30 03:56:35;;;;;;;23.70;12.90;;;8.50;99.90;;;;;;4142269;28;20052;-63
2022/03/30 03:58:35;;;;;;;30.58;13.77;;;8.50;99.90;;;;;;4142813;28;20057;-63
2022/03/30 04:00:36;;;;;;;26.08;14.15;;;8.50;99.90;;;;;;4143581;28;20033;-63
2022/03/30 04:02:37;;;;;;;29.35;14.27;;;8.50;99.90;;;;;;4144619;28;20421;-63
2022/03/30 04:04:38;;;;;;;28.98;14.10;;;8.50;99.90;;;;;;4139473;28;20501;-63
2022/03/30 04:06:38;;;;;;;29.35;13.73;;;8.50;99.90;;;;;;4139498;28;20030;-63
2022/03/30 04:08:39;;;;;;;27.73;13.75;;;8.50;99.90;;;;;;4143481;28;20030;-63
2022/03/30 04:10:39;;;;;;;23.77;14.13;;;8.50;99.90;;;;;;4143134;28;20026;-63
2022/03/30 04:12:40;;;;;;;23.48;14.15;;;8.50;99.90;;;;;;4144535;28;20034;-63
2022/03/30 04:14:41;;;;;;;24.10;13.15;;;8.50;99.90;;;;;;4141220;28;20061;-63
2022/03/30 04:16:42;;;;;;;26.48;13.68;;;8.50;99.90;;;;;;4142623;28;20038;-63
2022/03/30 04:18:43;;;;;;;24.25;13.60;;;8.50;99.90;;;;;;4142166;28;21144;-63
2022/03/30 04:20:44;;;;;;;26.80;12.40;;;8.40;99.90;;;;;;4141616;28;20493;-63
2022/03/30 04:22:45;;;;;;;27.30;14.02;;;8.40;99.90;;;;;;4142899;28;20029;-63
2022/03/30 04:24:45;;;;;;;30.25;13.60;;;8.40;99.90;;;;;;4125580;28;20575;-63
2022/03/30 04:26:46;;;;;;;29.73;14.55;;;8.40;99.90;;;;;;4141340;28;20390;-63
2022/03/30 04:28:46;;;;;;;24.35;13.43;;;8.40;99.90;;;;;;4140907;28;20092;-63
2022/03/30 04:30:47;;;;;;;26.40;13.98;;;8.40;99.90;;;;;;4140395;28;20042;-63
2022/03/30 04:32:48;;;;;;;22.83;13.35;;;8.40;99.90;;;;;;4140252;28;20026;-63
2022/03/30 04:34:48;;;;;;;24.00;14.68;;;8.40;99.90;;;;;;4141142;28;20173;-63
2022/03/30 04:36:49;;;;;;;24.85;13.27;;;8.40;99.90;;;;;;4140798;28;20065;-63
2022/03/30 04:38:50;;;;;;;27.00;14.07;;;8.40;99.90;;;;;;4140959;28;20038;-63
2022/03/30 04:40:51;;;;;;;27.10;14.95;;;8.40;99.90;;;;;;4139277;28;20042;-63
2022/03/30 04:42:52;;;;;;;27.73;14.15;;;8.40;99.90;;;;;;4142680;28;20437;-63
2022/03/30 04:44:52;;;;;;;27.88;15.10;;;8.40;99.90;;;;;;4144056;28;20054;-63
2022/03/30 04:46:53;;;;;;;30.05;14.70;;;8.30;99.90;;;;;;4144531;28;20038;-63
2022/03/30 04:48:54;;;;;;;28.75;14.90;;;8.30;99.90;;;;;;4144318;28;20510;-63
2022/03/30 04:50:54;;;;;;;24.48;14.35;;;8.30;99.90;;;;;;4144928;28;20073;-63
2022/03/30 04:52:56;;;;;;;26.00;15.18;;;8.30;99.90;;;;;;4145617;28;20038;-63
2022/03/30 04:54:57;;;;;;;26.70;14.37;;;8.30;99.90;;;;;;4145971;28;20603;-63
2022/03/30 04:56:57;;;;;;;31.10;15.70;;;8.30;99.90;;;;;;4146408;28;20273;-62
2022/03/30 04:58:58;;;;;;;30.95;14.98;;;8.30;99.90;;;;;;4147229;28;20026;-63
2022/03/30 05:00:58;;;;;;;34.95;17.67;;;8.30;99.90;;;;;;4148727;28;20053;-63
2022/03/30 05:02:59;;;;;;;32.72;16.52;;;8.30;99.90;;;;;;4148898;28;20034;-63
2022/03/30 05:05:00;;;;;;;29.83;16.63;;;8.20;99.90;;;;;;4147246;28;20064;-64
2022/03/30 05:07:01;;;;;;;32.90;16.30;;;8.20;99.90;;;;;;4143490;28;20034;-63
2022/03/30 05:09:02;;;;;;;31.58;16.17;;;8.10;99.90;;;;;;4145272;28;20444;-63
2022/03/30 05:11:03;;;;;;;34.20;17.10;;;8.10;99.90;;;;;;4145728;28;20034;-63
2022/03/30 05:13:04;;;;;;;26.33;15.07;;;8.10;99.90;;;;;;4146088;28;20165;-63
2022/03/30 05:15:05;;;;;;;28.17;14.82;;;8.00;99.90;;;;;;4143852;28;20438;-65
2022/03/30 05:17:06;;;;;;;26.63;13.95;;;8.10;99.90;;;;;;4143040;28;20485;-63
2022/03/30 05:19:07;;;;;;;26.60;14.45;;;8.10;99.90;;;;;;4143508;28;20036;-63
2022/03/30 05:21:07;;;;;;;29.90;14.68;;;8.00;99.90;;;;;;4143496;28;20545;-63
2022/03/30 05:23:08;;;;;;;27.05;14.52;;;8.00;99.90;;;;;;4142966;28;20563;-63
2022/03/30 05:25:09;;;;;;;27.63;15.60;;;8.00;99.90;;;;;;4145151;28;20041;-63
2022/03/30 05:27:11;;;;;;;25.80;14.30;;;8.00;99.90;;;;;;4145902;28;20497;-63
2022/03/30 05:29:12;;;;;;;27.13;14.82;;;8.00;99.90;;;;;;4144320;28;20050;-63
2022/03/30 05:31:12;;;;;;;32.47;15.23;;;7.90;99.90;;;;;;4144075;28;20130;-63
2022/03/30 05:33:13;;;;;;;31.15;16.40;;;7.90;99.90;;;;;;4148634;28;20037;-63
2022/03/30 05:35:14;;;;;;;34.17;16.23;;;7.90;99.90;;;;;;4149962;28;20176;-64
2022/03/30 05:37:15;;;;;;;27.25;15.20;;;7.80;99.90;;;;;;4147739;28;20477;-63
2022/03/30 05:39:16;;;;;;;28.95;15.75;;;7.80;99.90;;;;;;4142992;28;20045;-63
2022/03/30 05:41:17;;;;;;;30.33;16.50;;;7.80;99.90;;;;;;4144264;28;20507;-63
2022/03/30 05:43:18;;;;;;;27.52;15.00;;;7.80;99.90;;;;;;4145066;28;20038;-66
2022/03/30 05:45:19;;;;;;;35.05;16.63;;;7.80;99.90;;;;;;4148500;28;20049;-65
2022/03/30 05:47:19;;;;;;;31.15;15.93;;;7.80;99.90;;;;;;4144879;28;20160;-64
2022/03/30 05:49:20;;;;;;;31.48;15.40;;;7.80;99.90;;;;;;4148711;28;20427;-65
2022/03/30 05:51:21;;;;;;;28.45;15.30;;;7.80;99.90;;;;;;4147395;28;20040;-64
2022/03/30 05:53:22;;;;;;;31.55;16.75;;;7.80;99.90;;;;;;4145840;28;20045;-64
2022/03/30 05:55:22;;;;;;;32.88;15.70;;;7.80;99.90;;;;;;4144442;28;20049;-64
2022/03/30 05:57:23;;;;;;;34.20;15.65;;;7.80;99.90;;;;;;4146124;28;20377;-65
2022/03/30 05:59:24;;;;;;;28.70;15.15;;;7.70;99.90;;;;;;4147429;28;20064;-65
2022/03/30 06:01:24;;;;;;;32.45;16.35;;;7.80;99.90;;;;;;4140350;28;20397;-66
2022/03/30 06:03:25;;;;;;;30.60;15.02;;;7.80;99.90;;;;;;4144529;28;20054;-65
2022/03/30 06:05:25;;;;;;;33.03;15.70;;;7.80;99.90;;;;;;4145118;28;20440;-65
2022/03/30 06:07:26;;;;;;;30.83;15.70;;;7.80;99.90;;;;;;4143743;28;20112;-64
2022/03/30 06:09:27;;;;;;;28.50;15.05;;;7.80;99.90;;;;;;4142321;28;20053;-64
2022/03/30 06:11:28;;;;;;;30.20;15.18;;;7.80;99.90;;;;;;4142242;28;20117;-65
2022/03/30 06:13:28;;;;;;;29.30;16.02;;;7.80;99.90;;;;;;4145450;28;20030;-65
2022/03/30 06:15:31;;;;;;;30.95;15.70;;;7.90;99.90;;;;;;4144290;28;20038;-64
2022/03/30 06:17:31;;;;;;;31.05;16.52;;;7.90;99.90;;;;;;4143191;28;20049;-65
2022/03/30 06:19:33;;;;;;;32.97;16.42;;;8.00;99.90;;;;;;4146246;28;20044;-65
2022/03/30 06:21:34;;;;;;;32.47;16.08;;;8.00;99.90;;;;;;4142646;28;20045;-65
2022/03/30 06:23:35;;;;;;;30.08;16.25;;;8.00;99.90;;;;;;4147655;28;20076;-65
2022/03/30 06:25:36;;;;;;;32.90;16.30;;;8.00;99.90;;;;;;4144067;28;20096;-65
2022/03/30 06:27:38;;;;;;;34.55;16.15;;;8.10;99.90;;;;;;4123989;28;20046;-65
2022/03/30 06:29:41;;;;;;;33.35;17.02;;;8.20;99.90;;;;;;4141089;28;20042;-65
2022/03/30 06:31:42;;;;;;;29.80;15.65;;;8.30;99.90;;;;;;4140494;28;20041;-65
2022/03/30 06:33:45;;;;;;;26.50;13.80;;;8.50;99.90;;;;;;4141397;28;20076;-65
2022/03/30 06:35:46;;;;;;;28.65;15.93;;;8.60;99.90;;;;;;4141362;28;20500;-65
2022/03/30 06:37:47;;;;;;;26.05;14.70;;;8.80;99.90;;;;;;4145019;28;21312;-65
2022/03/30 06:39:49;;;;;;;26.60;14.55;;;8.90;99.90;;;;;;4141435;28;20045;-65
2022/03/30 06:41:50;;;;;;;31.90;16.37;;;9.10;99.90;;;;;;4134729;28;20045;-65
2022/03/30 06:43:51;;;;;;;28.02;15.52;;;9.20;99.90;;;;;;4141814;28;20038;-65
2022/03/30 06:45:51;;;;;;;29.77;15.25;;;9.40;99.90;;;;;;4139523;28;20049;-65
2022/03/30 06:47:53;;;;;;;28.63;16.10;;;9.50;99.90;;;;;;4139224;28;20092;-65
2022/03/30 06:49:55;;;;;;;24.17;14.30;;;9.70;99.90;;;;;;4136962;28;20584;-65
2022/03/30 06:51:56;;;;;;;27.42;15.70;;;9.90;99.90;;;;;;4140887;28;20030;-65
2022/03/30 06:53:56;;;;;;;31.15;16.02;;;10.00;99.90;;;;;;4141803;28;20574;-65
2022/03/30 06:55:57;;;;;;;30.77;15.18;;;10.00;99.90;;;;;;4140777;28;20062;-65
2022/03/30 06:57:58;;;;;;;28.65;15.38;;;10.20;99.90;;;;;;4141128;28;20046;-65
2022/03/30 06:59:58;;;;;;;27.80;14.40;;;10.30;99.90;;;;;;4141398;28;20034;-65
2022/03/30 07:01:59;;;;;;;28.27;15.93;;;10.50;99.90;;;;;;4140895;28;20501;-65
2022/03/30 07:04:00;;;;;;;27.90;15.93;;;10.30;99.90;;;;;;4141780;28;20030;-65
2022/03/30 07:06:03;;;;;;;26.92;16.23;;;10.50;99.90;;;;;;4140007;28;20041;-65
2022/03/30 07:10:23;;;;;;;26.02;14.20;;;10.80;99.90;;;;;;4139987;28;20045;-65
2022/03/30 07:12:24;;;;;;;27.17;15.15;;;11.10;99.90;;;;;;4141245;28;20042;-65
2022/03/30 07:14:25;;;;;;;27.20;16.15;;;11.30;99.90;;;;;;4141031;28;20567;-66
2022/03/30 07:16:25;;;;;;;26.17;15.70;;;11.50;99.90;;;;;;4139486;28;20100;-65
2022/03/30 07:18:27;;;;;;;27.63;15.13;;;11.70;99.90;;;;;;4142128;28;20045;-65
2022/03/30 07:20:32;;;;;;;24.70;14.52;;;11.80;99.90;;;;;;4140719;28;20132;-65
2022/03/30 07:22:32;;;;;;;24.77;13.88;;;12.00;99.90;;;;;;4140385;28;20042;-65
2022/03/30 07:24:33;;;;;;;28.60;15.95;;;12.00;99.90;;;;;;4140298;28;20112;-65
2022/03/30 07:26:34;;;;;;;26.58;14.98;;;11.30;99.90;;;;;;4139677;28;20038;-65
2022/03/30 07:28:35;;;;;;;24.92;14.82;;;11.20;99.90;;;;;;4141498;28;20382;-64
2022/03/30 07:30:37;;;;;;;26.42;15.48;;;11.20;99.90;;;;;;4122862;28;20018;-65
2022/03/30 07:32:39;;;;;;;20.98;13.88;;;10.90;99.90;;;;;;4141286;28;20172;-65
2022/03/30 07:34:40;;;;;;;24.73;14.00;;;11.10;99.90;;;;;;4140606;28;20049;-65
2022/03/30 07:36:40;;;;;;;22.77;13.52;;;11.40;99.90;;;;;;4139338;28;20033;-65
2022/03/30 07:38:41;;;;;;;22.85;14.18;;;11.60;99.90;;;;;;4141051;28;20100;-64
2022/03/30 07:40:43;;;;;;;26.58;14.50;;;11.60;99.90;;;;;;4140959;28;20037;-64
2022/03/30 07:42:45;;;;;;;25.20;14.18;;;11.70;99.90;;;;;;4140889;28;20117;-65
2022/03/30 07:44:46;;;;;;;24.50;13.20;;;12.00;99.90;;;;;;4140538;28;20557;-64
2022/03/30 07:46:48;;;;;;;27.88;15.15;;;12.00;99.90;;;;;;4139976;28;20042;-65
2022/03/30 07:48:49;;;;;;;;;;;12.40;99.90;;;;;;4142213;28;20880;-62
2022/03/30 07:50:50;;;;;;;20.90;12.35;;;12.80;99.90;;;;;;4140013;28;19914;-64
2022/03/30 07:52:50;;;;;;;22.90;13.70;;;12.80;99.90;;;;;;4140675;28;20109;-64
2022/03/30 07:54:52;;;;;;;23.90;13.65;;;13.10;99.90;;;;;;4141150;28;20031;-64
2022/03/30 07:56:52;;;;;;;26.65;13.55;;;13.20;99.90;;;;;;4139460;28;20127;-64
2022/03/30 07:58:56;;;;;;;24.58;13.13;;;13.50;99.90;;;;;;4125557;28;20038;-64
2022/03/30 08:00:56;;;;;;;21.55;13.13;;;13.70;99.90;;;;;;4139628;28;20034;-66
2022/03/30 08:02:58;;;;;;;21.63;12.60;;;13.90;99.90;;;;;;4142244;28;20030;-63
2022/03/30 08:04:59;;;;;;;24.97;12.73;;;13.90;99.90;;;;;;4140999;28;20519;-63
2022/03/30 08:07:00;;;;;;;21.15;12.38;;;13.80;99.90;;;;;;4138893;28;20077;-63
2022/03/30 08:09:02;;;;;;;20.90;12.02;;;14.00;99.90;;;;;;4140020;28;20941;-63
2022/03/30 08:11:03;;;;;;;19.95;11.80;;;14.20;99.90;;;;;;4139150;28;20474;-63
2022/03/30 08:13:04;;;;;;;21.52;11.80;;;14.30;99.90;;;;;;4140997;28;20038;-63
2022/03/30 08:15:05;;;;;;;17.58;10.23;;;14.00;97.20;;;;;;4142538;28;20106;-63
2022/03/30 08:17:06;;;;;;;23.35;11.15;;;14.20;98.00;;;;;;4138946;28;20050;-63
2022/03/30 08:19:07;;;;;;;22.33;11.73;;;14.20;97.90;;;;;;4141725;28;20404;-63
2022/03/30 08:23:27;;;;;;;18.48;11.75;;;13.90;96.90;;;;;;4143882;28;20046;-63
2022/03/30 08:25:28;;;;;;;22.10;11.32;;;14.10;98.80;;;;;;4144626;28;20129;-63
2022/03/30 08:27:31;;;;;;;22.25;11.75;;;14.10;98.20;;;;;;4129437;28;20138;-63
2022/03/30 08:29:32;;;;;;;23.05;13.23;;;13.80;96.60;;;;;;4142979;28;20049;-63
2022/03/30 08:31:34;;;;;;;22.73;12.45;;;13.10;96.80;;;;;;4146321;28;20497;-64
2022/03/30 08:33:35;;;;;;;20.63;11.25;;;13.30;96.60;;;;;;4145825;28;20038;-63
2022/03/30 08:35:35;;;;;;;20.80;12.25;;;13.30;96.60;;;;;;4144654;28;20038;-63
2022/03/30 08:37:36;;;;;;;22.70;12.23;;;13.30;97.80;;;;;;4144492;28;20133;-63
2022/03/30 08:39:37;;;;;;;19.30;10.90;;;13.30;99.70;;;;;;4144099;28;20038;-63
2022/03/30 08:41:42;;;;;;;21.55;11.43;;;13.50;99.90;;;;;;4144862;28;20069;-63
2022/03/30 08:43:43;;;;;;;18.08;11.55;;;13.60;97.00;;;;;;4146908;28;20053;-63
2022/03/30 08:45:43;;;;;;;22.70;12.20;;;13.80;99.90;;;;;;4145576;28;20041;-63
2022/03/30 08:47:44;;;;;;;18.15;11.65;;;13.30;98.50;;;;;;4142794;28;20037;-63
2022/03/30 08:49:47;;;;;;;21.27;11.57;;;13.50;99.90;;;;;;4143199;28;20062;-63
2022/03/30 08:51:49;;;;;;;21.50;11.15;;;13.70;99.00;;;;;;4135051;28;20054;-63
2022/03/30 08:53:50;;;;;;;18.55;10.35;;;13.70;96.60;;;;;;4155918;28;20034;-63
2022/03/30 08:55:51;;;;;;;26.20;11.90;;;13.80;97.60;;;;;;4142259;28;20085;-63
2022/03/30 08:57:51;;;;;;;16.77;10.80;;;13.50;99.20;;;;;;4140662;28;20037;-62
2022/03/30 09:00:16;;;;;;;17.48;10.40;;;13.80;99.20;;;;;;4143964;28;20961;-63
2022/03/30 09:02:18;;;;;;;25.08;12.20;;;13.90;96.70;;;;;;4138842;28;20042;-62
2022/03/30 09:04:19;;;;;;;20.90;11.02;;;13.60;95.90;;;;;;4138600;28;20030;-62
2022/03/30 09:06:34;;;;;;;20.55;11.30;;;13.90;99.20;;;;;;4138632;28;20397;-63
2022/03/30 09:08:38;;;;;;;22.60;11.25;;;13.90;96.10;;;;;;4140008;28;20069;-63
2022/03/30 09:10:42;;;;;;;23.65;10.48;;;13.20;95.90;;;;;;4141873;28;20088;-63
2022/03/30 09:12:44;;;;;;;19.77;10.95;;;13.60;99.80;;;;;;4143686;28;20061;-63
2022/03/30 09:14:45;;;;;;;17.80;10.30;;;13.90;99.90;;;;;;4142394;28;20037;-63
2022/03/30 09:16:51;;;;;;;19.13;11.18;;;14.00;98.10;;;;;;4141961;28;20093;-63
2022/03/30 09:19:05;;;;;;;20.35;10.80;;;14.20;96.60;;;;;;4141620;28;20029;-63
2022/03/30 09:21:06;;;;;;;22.20;12.10;;;14.30;96.70;;;;;;4142069;28;20042;-63
2022/03/30 09:23:10;;;;;;;17.27;10.25;;;13.20;95.30;;;;;;4142322;28;20056;-63
2022/03/30 09:25:11;;;;;;;21.20;11.30;;;13.60;99.20;;;;;;4142103;28;20041;-63
2022/03/30 09:27:13;;;;;;;22.17;10.63;;;13.80;98.60;;;;;;4142535;28;20037;-63
2022/03/30 09:29:14;;;;;;;17.25;10.30;;;14.00;99.20;;;;;;4142960;28;20096;-63
2022/03/30 09:31:14;;;;;;;24.52;12.23;;;14.00;96.00;;;;;;4141989;28;20047;-63
2022/03/30 09:33:21;;;;;;;17.42;10.43;;;12.90;95.30;;;;;;4143172;28;20045;-63
2022/03/30 09:35:34;;;;;;;21.85;11.00;;;13.40;98.30;;;;;;4141950;28;20492;-63
2022/03/30 09:37:34;;;;;;;18.08;10.10;;;13.50;98.70;;;;;;4155724;28;20045;-63
2022/03/30 09:39:37;;;;;;;21.42;11.43;;;13.40;95.60;;;;;;4142027;28;20040;-63
2022/03/30 09:41:44;;;;;;;;;;;13.20;98.00;;;;;;4141226;28;20105;-63
2022/03/30 09:43:45;;;;;;;18.45;10.48;;;13.60;99.20;;;;;;4140717;28;19917;-64
2022/03/30 09:45:48;;;;;;;19.65;11.75;;;13.50;96.70;;;;;;4140280;28;20113;-64
2022/03/30 09:47:48;;;;;;;20.08;11.30;;;13.00;96.10;;;;;;4141751;28;20397;-63
2022/03/30 09:49:53;;;;;;;17.40;10.73;;;13.20;96.60;;;;;;4141004;28;20041;-63
2022/03/30 09:51:55;;;;;;;19.70;11.40;;;13.50;99.50;;;;;;4140089;28;20521;-63
2022/03/30 09:53:55;;;;;;;20.48;10.63;;;13.70;99.90;;;;;;4140396;28;20494;-64
2022/03/30 09:55:59;;;;;;;16.80;10.07;;;14.00;99.90;;;;;;4139250;28;20048;-63
2022/03/30 09:58:06;;;;;;;19.33;10.23;;;14.20;99.10;;;;;;4138711;28;20070;-64
2022/03/30 10:00:15;;;;;;;18.55;11.00;;;14.40;98.00;;;;;;4138764;28;20073;-63
2022/03/30 10:02:17;;;;;;;18.80;10.35;;;14.60;99.00;;;;;;4140070;28;20033;-62
2022/03/30 10:04:18;;;;;;;18.53;10.90;;;14.60;95.40;;;;;;4139644;28;20034;-63
2022/03/30 10:06:27;;;;;;;17.52;9.65;;;14.70;96.90;;;;;;4139888;28;20042;-63
2022/03/30 10:08:28;;;;;;;17.60;10.25;;;14.80;97.40;;;;;;4139803;28;20068;-63
2022/03/30 10:10:28;;;;;;;21.77;11.18;;;15.00;97.70;;;;;;4139419;28;20042;-63
2022/03/30 10:12:29;;;;;;;19.45;11.52;;;15.10;98.20;;;;;;4139665;28;20042;-63
2022/03/30 10:14:30;;;;;;;19.58;10.15;;;15.10;97.10;;;;;;4140127;28;20030;-63
2022/03/30 10:16:30;;;;;;;25.85;12.30;;;15.10;95.60;;;;;;4139390;28;20029;-63
2022/03/30 10:18:32;;;;;;;22.08;11.48;;;15.20;97.50;;;;;;4140310;28;20065;-63
2022/03/30 10:20:32;;;;;;;19.05;10.50;;;15.20;97.00;;;;;;4138971;28;20045;-63
2022/03/30 10:22:47;;;;;;;18.70;10.07;;;15.20;96.40;;;;;;4142518;28;20053;-63
2022/03/30 10:25:02;;;;;;;23.38;12.43;;;15.40;97.10;;;;;;4142223;28;20053;-63
2022/03/30 10:27:03;;;;;;;24.50;10.95;;;15.40;96.20;;;;;;4139737;28;20030;-63
2022/03/30 10:29:09;;;;;;;17.13;10.32;;;15.30;93.80;;;;;;4142215;28;20474;-63